sensor_id;sensor_type;location;lat;lon;timestamp;pressure;altitude;pressure_sealevel;temperature;humidity
19210;BME280;9738;51.654;14.238;2022-09-12T00:01:48;100639.44;;;14.45;100.00
19210;BME280;9738;51.654;14.238;2022-09-12T00:04:14;100639.28;;;14.39;100.00
19210;BME280;9738;51.654;14.238;2022-09-12T00:06:41;100640.63;;;14.34;100.00
19210;BME280;9738;51.654;14.238;2022-09-12T00:09:09;100636.13;;;14.27;100.00
19210;BME280;9738;51.654;14.238;2022-09-12T00:11:37;100640.31;;;14.21;100.00
19210;BME280;9738;51.654;14.238;2022-09-12T00:14:04;100639.31;;;14.14;100.00
19210;BME280;9738;51.654;14.238;2022-09-12T00:16:33;100637.50;;;14.06;100.00
19210;BME280;9738;51.654;14.238;2022-09-12T00:19:00;100640.16;;;13.98;100.00
19210;BME280;9738;51.654;14.238;2022-09-12T00:21:26;100638.16;;;13.92;100.00
19210;BME280;9738;51.654;14.238;2022-09-12T00:23:52;100641.66;;;13.85;100.00
19210;BME280;9738;51.654;14.238;2022-09-12T00:26:19;100639.81;;;13.77;100.00
19210;BME280;9738;51.654;14.238;2022-09-12T00:28:47;100639.13;;;13.67;100.00
19210;BME280;9738;51.654;14.238;2022-09-12T00:31:15;100632.28;;;13.56;100.00
19210;BME280;9738;51.654;14.238;2022-09-12T00:33:41;100635.75;;;13.48;100.00
19210;BME280;9738;51.654;14.238;2022-09-12T00:36:14;100634.44;;;13.44;100.00
19210;BME280;9738;51.654;14.238;2022-09-12T00:38:41;100628.06;;;13.37;100.00
19210;BME280;9738;51.654;14.238;2022-09-12T00:41:14;100628.72;;;13.31;100.00
19210;BME280;9738;51.654;14.238;2022-09-12T00:44:02;100629.19;;;13.27;100.00
19210;BME280;9738;51.654;14.238;2022-09-12T00:46:39;100628.66;;;13.23;100.00
19210;BME280;9738;51.654;14.238;2022-09-12T00:52:00;100630.28;;;13.16;100.00
19210;BME280;9738;51.654;14.238;2022-09-12T00:54:36;100632.00;;;13.17;100.00
19210;BME280;9738;51.654;14.238;2022-09-12T00:57:05;100631.00;;;13.18;100.00
19210;BME280;9738;51.654;14.238;2022-09-12T00:59:40;100639.03;;;13.18;100.00
19210;BME280;9738;51.654;14.238;2022-09-12T01:02:08;100634.34;;;13.20;100.00
19210;BME280;9738;51.654;14.238;2022-09-12T01:04:36;100629.84;;;13.20;100.00
19210;BME280;9738;51.654;14.238;2022-09-12T01:07:04;100633.38;;;13.21;100.00
19210;BME280;9738;51.654;14.238;2022-09-12T01:09:31;100623.59;;;13.20;100.00
19210;BME280;9738;51.654;14.238;2022-09-12T01:11:57;100623.59;;;13.20;100.00
19210;BME280;9738;51.654;14.238;2022-09-12T01:14:23;100630.69;;;13.21;100.00
19210;BME280;9738;51.654;14.238;2022-09-12T01:16:50;100624.31;;;13.22;100.00
19210;BME280;9738;51.654;14.238;2022-09-12T01:22:31;100625.97;;;13.23;100.00
19210;BME280;9738;51.654;14.238;2022-09-12T01:27:53;100627.69;;;13.24;100.00
19210;BME280;9738;51.654;14.238;2022-09-12T01:30:46;100624.84;;;13.25;100.00
19210;BME280;9738;51.654;14.238;2022-09-12T01:33:27;100624.50;;;13.29;100.00
19210;BME280;9738;51.654;14.238;2022-09-12T01:38:59;100621.16;;;13.35;100.00
19210;BME280;9738;51.654;14.238;2022-09-12T01:41:41;100625.19;;;13.39;100.00
19210;BME280;9738;51.654;14.238;2022-09-12T01:44:19;100622.34;;;13.40;100.00
19210;BME280;9738;51.654;14.238;2022-09-12T01:46:57;100619.16;;;13.45;100.00
19210;BME280;9738;51.654;14.238;2022-09-12T01:49:32;100621.50;;;13.48;100.00
19210;BME280;9738;51.654;14.238;2022-09-12T01:52:14;100613.47;;;13.48;100.00
19210;BME280;9738;51.654;14.238;2022-09-12T01:55:14;100610.09;;;13.46;100.00
19210;BME280;9738;51.654;14.238;2022-09-12T01:57:47;100611.97;;;13.45;100.00
19210;BME280;9738;51.654;14.238;2022-09-12T02:00:15;100621.69;;;13.46;100.00
19210;BME280;9738;51.654;14.238;2022-09-12T02:02:46;100612.78;;;13.46;100.00
19210;BME280;9738;51.654;14.238;2022-09-12T02:05:21;100608.44;;;13.45;100.00
19210;BME280;9738;51.654;14.238;2022-09-12T02:07:53;100603.91;;;13.45;100.00
19210;BME280;9738;51.654;14.238;2022-09-12T02:10:24;100610.28;;;13.44;100.00
19210;BME280;9738;51.654;14.238;2022-09-12T02:12:58;100609.09;;;13.47;100.00
19210;BME280;9738;51.654;14.238;2022-09-12T02:15:32;100606.41;;;13.47;100.00
19210;BME280;9738;51.654;14.238;2022-09-12T02:18:01;100605.94;;;13.43;100.00
19210;BME280;9738;51.654;14.238;2022-09-12T02:20:35;100599.88;;;13.41;100.00
19210;BME280;9738;51.654;14.238;2022-09-12T02:23:05;100600.22;;;13.38;100.00
19210;BME280;9738;51.654;14.238;2022-09-12T02:25:37;100601.53;;;13.34;100.00
19210;BME280;9738;51.654;14.238;2022-09-12T02:28:09;100590.63;;;13.28;100.00
19210;BME280;9738;51.654;14.238;2022-09-12T02:30:51;100592.97;;;13.22;100.00
19210;BME280;9738;51.654;14.238;2022-09-12T02:33:26;100599.81;;;13.17;100.00
19210;BME280;9738;51.654;14.238;2022-09-12T02:36:08;100596.13;;;13.18;100.00
19210;BME280;9738;51.654;14.238;2022-09-12T02:38:43;100599.28;;;13.13;100.00
19210;BME280;9738;51.654;14.238;2022-09-12T02:41:13;100598.75;;;13.10;100.00
19210;BME280;9738;51.654;14.238;2022-09-12T02:43:40;100598.28;;;13.06;100.00
19210;BME280;9738;51.654;14.238;2022-09-12T02:46:07;100598.75;;;13.02;100.00
19210;BME280;9738;51.654;14.238;2022-09-12T02:48:38;100603.09;;;12.94;100.00
19210;BME280;9738;51.654;14.238;2022-09-12T02:51:06;100610.09;;;12.87;100.00
19210;BME280;9738;51.654;14.238;2022-09-12T02:53:32;100606.22;;;12.82;100.00
19210;BME280;9738;51.654;14.238;2022-09-12T02:55:59;100594.47;;;12.75;100.00
19210;BME280;9738;51.654;14.238;2022-09-12T02:58:28;100606.50;;;12.70;100.00
19210;BME280;9738;51.654;14.238;2022-09-12T03:01:14;100602.31;;;12.68;100.00
19210;BME280;9738;51.654;14.238;2022-09-12T03:04:23;100598.63;;;12.69;100.00
19210;BME280;9738;51.654;14.238;2022-09-12T03:06:58;100603.31;;;12.67;100.00
19210;BME280;9738;51.654;14.238;2022-09-12T03:12:35;100612.56;;;12.73;100.00
19210;BME280;9738;51.654;14.238;2022-09-12T03:15:43;100612.06;;;12.77;100.00
19210;BME280;9738;51.654;14.238;2022-09-12T03:18:19;100613.59;;;12.80;100.00
19210;BME280;9738;51.654;14.238;2022-09-12T03:24:11;100614.44;;;12.80;100.00
19210;BME280;9738;51.654;14.238;2022-09-12T03:27:02;100611.59;;;12.82;100.00
19210;BME280;9738;51.654;14.238;2022-09-12T03:29:30;100611.94;;;12.87;100.00
19210;BME280;9738;51.654;14.238;2022-09-12T03:31:57;100615.00;;;12.92;100.00
19210;BME280;9738;51.654;14.238;2022-09-12T03:34:25;100615.50;;;12.95;100.00
19210;BME280;9738;51.654;14.238;2022-09-12T03:36:52;100614.16;;;12.99;100.00
19210;BME280;9738;51.654;14.238;2022-09-12T03:39:21;100625.41;;;13.03;100.00
19210;BME280;9738;51.654;14.238;2022-09-12T03:41:49;100617.34;;;13.03;100.00
19210;BME280;9738;51.654;14.238;2022-09-12T03:44:16;100618.88;;;13.06;100.00
19210;BME280;9738;51.654;14.238;2022-09-12T03:46:43;100623.91;;;13.09;100.00
19210;BME280;9738;51.654;14.238;2022-09-12T03:49:09;100619.06;;;13.12;100.00
19210;BME280;9738;51.654;14.238;2022-09-12T03:51:35;100620.41;;;13.16;100.00
19210;BME280;9738;51.654;14.238;2022-09-12T03:54:02;100629.16;;;13.18;100.00
19210;BME280;9738;51.654;14.238;2022-09-12T03:56:29;100622.78;;;13.19;100.00
19210;BME280;9738;51.654;14.238;2022-09-12T03:58:55;100627.00;;;13.22;100.00
19210;BME280;9738;51.654;14.238;2022-09-12T04:01:21;100633.38;;;13.21;100.00
19210;BME280;9738;51.654;14.238;2022-09-12T04:03:49;100614.91;;;13.18;100.00
19210;BME280;9738;51.654;14.238;2022-09-12T04:06:17;100622.78;;;13.19;100.00
19210;BME280;9738;51.654;14.238;2022-09-12T04:08:47;100628.84;;;13.21;100.00
19210;BME280;9738;51.654;14.238;2022-09-12T04:11:15;100625.31;;;13.21;100.00
19210;BME280;9738;51.654;14.238;2022-09-12T04:13:43;100620.94;;;13.20;100.00
19210;BME280;9738;51.654;14.238;2022-09-12T04:16:11;100627.69;;;13.24;100.00
19210;BME280;9738;51.654;14.238;2022-09-12T04:18:38;100633.53;;;13.28;100.00
19210;BME280;9738;51.654;14.238;2022-09-12T04:21:05;100627.03;;;13.30;100.00
19210;BME280;9738;51.654;14.238;2022-09-12T04:23:32;100632.72;;;13.35;100.00
19210;BME280;9738;51.654;14.238;2022-09-12T04:26:00;100626.88;;;13.40;100.00
19210;BME280;9738;51.654;14.238;2022-09-12T04:28:27;100629.06;;;13.44;100.00
19210;BME280;9738;51.654;14.238;2022-09-12T04:30:54;100631.25;;;13.49;100.00
19210;BME280;9738;51.654;14.238;2022-09-12T04:33:20;100634.59;;;13.51;100.00
19210;BME280;9738;51.654;14.238;2022-09-12T04:35:47;100629.59;;;13.56;100.00
19210;BME280;9738;51.654;14.238;2022-09-12T04:38:13;100624.72;;;13.60;100.00
19210;BME280;9738;51.654;14.238;2022-09-12T04:40:39;100629.91;;;13.61;100.00
19210;BME280;9738;51.654;14.238;2022-09-12T04:43:05;100625.06;;;13.65;100.00
19210;BME280;9738;51.654;14.238;2022-09-12T04:45:32;100628.41;;;13.67;100.00
19210;BME280;9738;51.654;14.238;2022-09-12T04:47:58;100631.78;;;13.69;100.00
19210;BME280;9738;51.654;14.238;2022-09-12T04:50:24;100624.41;;;13.71;100.00
19210;BME280;9738;51.654;14.238;2022-09-12T04:52:52;100631.44;;;13.72;100.00
19210;BME280;9738;51.654;14.238;2022-09-12T04:55:19;100628.25;;;13.76;100.00
19210;BME280;9738;51.654;14.238;2022-09-12T04:57:45;100626.94;;;13.81;100.00
19210;BME280;9738;51.654;14.238;2022-09-12T05:00:12;100624.72;;;13.84;100.00
19210;BME280;9738;51.654;14.238;2022-09-12T05:02:42;100622.69;;;13.86;100.00
19210;BME280;9738;51.654;14.238;2022-09-12T05:05:09;100626.22;;;13.87;100.00
19210;BME280;9738;51.654;14.238;2022-09-12T05:07:35;100622.56;;;13.88;100.00
19210;BME280;9738;51.654;14.238;2022-09-12T05:10:01;100626.09;;;13.88;100.00
19210;BME280;9738;51.654;14.238;2022-09-12T05:12:30;100627.56;;;13.91;100.00
19210;BME280;9738;51.654;14.238;2022-09-12T05:14:56;100636.16;;;13.94;100.00
19210;BME280;9738;51.654;14.238;2022-09-12T05:17:22;100632.44;;;13.95;100.00
19210;BME280;9738;51.654;14.238;2022-09-12T05:19:48;100633.13;;;13.97;100.00
19210;BME280;9738;51.654;14.238;2022-09-12T05:22:14;100650.91;;;13.98;100.00
19210;BME280;9738;51.654;14.238;2022-09-12T05:24:40;100638.31;;;13.99;100.00
19210;BME280;9738;51.654;14.238;2022-09-12T05:27:08;100642.69;;;14.00;100.00
19210;BME280;9738;51.654;14.238;2022-09-12T05:29:34;100640.66;;;14.02;100.00
19210;BME280;9738;51.654;14.238;2022-09-12T05:32:01;100643.34;;;14.02;100.00
19210;BME280;9738;51.654;14.238;2022-09-12T05:34:26;100646.69;;;14.04;100.00
19210;BME280;9738;51.654;14.238;2022-09-12T05:36:53;100642.03;;;14.06;100.00
19210;BME280;9738;51.654;14.238;2022-09-12T05:39:18;100654.25;;;14.09;100.00
19210;BME280;9738;51.654;14.238;2022-09-12T05:41:44;100647.69;;;14.11;100.00
19210;BME280;9738;51.654;14.238;2022-09-12T05:44:12;100649.06;;;14.15;100.00
19210;BME280;9738;51.654;14.238;2022-09-12T05:46:41;100647.88;;;14.18;100.00
19210;BME280;9738;51.654;14.238;2022-09-12T05:49:10;100646.53;;;14.22;100.00
19210;BME280;9738;51.654;14.238;2022-09-12T05:51:39;100653.25;;;14.26;100.00
19210;BME280;9738;51.654;14.238;2022-09-12T05:54:07;100658.25;;;14.29;100.00
19210;BME280;9738;51.654;14.238;2022-09-12T05:56:37;100657.09;;;14.31;100.00
19210;BME280;9738;51.654;14.238;2022-09-12T05:59:08;100661.13;;;14.36;100.00
19210;BME280;9738;51.654;14.238;2022-09-12T06:01:36;100653.88;;;14.36;100.00
19210;BME280;9738;51.654;14.238;2022-09-12T06:04:04;100653.56;;;14.39;100.00
19210;BME280;9738;51.654;14.238;2022-09-12T06:06:34;100653.22;;;14.42;100.00
19210;BME280;9738;51.654;14.238;2022-09-12T06:09:02;100655.88;;;14.42;100.00
19210;BME280;9738;51.654;14.238;2022-09-12T06:11:30;100648.53;;;14.44;100.00
19210;BME280;9738;51.654;14.238;2022-09-12T06:13:57;100660.09;;;14.45;100.00
19210;BME280;9738;51.654;14.238;2022-09-12T06:16:26;100657.09;;;14.48;100.00
19210;BME280;9738;51.654;14.238;2022-09-12T06:18:54;100660.28;;;14.51;100.00
19210;BME280;9738;51.654;14.238;2022-09-12T06:21:22;100659.09;;;14.54;100.00
19210;BME280;9738;51.654;14.238;2022-09-12T06:23:48;100665.63;;;14.59;100.00
19210;BME280;9738;51.654;14.238;2022-09-12T06:26:15;100663.44;;;14.63;100.00
19210;BME280;9738;51.654;14.238;2022-09-12T06:28:44;100662.25;;;14.66;100.00
19210;BME280;9738;51.654;14.238;2022-09-12T06:31:14;100667.97;;;14.71;100.00
19210;BME280;9738;51.654;14.238;2022-09-12T06:33:43;100660.19;;;14.76;100.00
19210;BME280;9738;51.654;14.238;2022-09-12T06:36:14;100660.88;;;14.78;100.00
19210;BME280;9738;51.654;14.238;2022-09-12T06:38:40;100673.13;;;14.80;100.00
19210;BME280;9738;51.654;14.238;2022-09-12T06:41:09;100673.97;;;14.81;100.00
19210;BME280;9738;51.654;14.238;2022-09-12T06:43:37;100665.91;;;14.81;100.00
19210;BME280;9738;51.654;14.238;2022-09-12T06:46:03;100677.34;;;14.83;100.00
19210;BME280;9738;51.654;14.238;2022-09-12T06:48:29;100674.28;;;14.86;100.00
19210;BME280;9738;51.654;14.238;2022-09-12T06:51:01;100677.50;;;14.90;100.00
19210;BME280;9738;51.654;14.238;2022-09-12T06:53:28;100678.78;;;14.94;100.00
19210;BME280;9738;51.654;14.238;2022-09-12T06:56:03;100683.84;;;14.97;100.00
19210;BME280;9738;51.654;14.238;2022-09-12T06:58:30;100675.91;;;15.03;100.00
19210;BME280;9738;51.654;14.238;2022-09-12T07:01:17;100676.19;;;15.17;100.00
19210;BME280;9738;51.654;14.238;2022-09-12T07:03:48;100686.25;;;15.23;100.00
19210;BME280;9738;51.654;14.238;2022-09-12T07:06:15;100678.97;;;15.31;100.00
19210;BME280;9738;51.654;14.238;2022-09-12T07:08:41;100673.78;;;15.30;100.00
19210;BME280;9738;51.654;14.238;2022-09-12T07:11:15;100687.00;;;15.39;100.00
19210;BME280;9738;51.654;14.238;2022-09-12T07:13:42;100683.97;;;15.43;100.00
19210;BME280;9738;51.654;14.238;2022-09-12T07:16:10;100688.81;;;15.47;100.00
19210;BME280;9738;51.654;14.238;2022-09-12T07:18:37;100689.28;;;15.51;100.00
19210;BME280;9738;51.654;14.238;2022-09-12T07:21:06;100687.94;;;15.55;100.00
19210;BME280;9738;51.654;14.238;2022-09-12T07:23:33;100686.56;;;15.59;100.00
19210;BME280;9738;51.654;14.238;2022-09-12T07:26:00;100686.22;;;15.62;100.00
19210;BME280;9738;51.654;14.238;2022-09-12T07:28:28;100687.72;;;15.64;100.00
19210;BME280;9738;51.654;14.238;2022-09-12T07:30:55;100683.69;;;15.60;100.00
19210;BME280;9738;51.654;14.238;2022-09-12T07:33:27;100690.75;;;15.61;100.00
19210;BME280;9738;51.654;14.238;2022-09-12T07:35:53;100690.75;;;15.61;100.00
19210;BME280;9738;51.654;14.238;2022-09-12T07:38:20;100691.75;;;15.68;100.00
19210;BME280;9738;51.654;14.238;2022-09-12T07:40:46;100688.97;;;15.77;100.00
19210;BME280;9738;51.654;14.238;2022-09-12T07:43:12;100696.19;;;15.84;100.00
19210;BME280;9738;51.654;14.238;2022-09-12T07:45:38;100682.47;;;15.94;100.00
19210;BME280;9738;51.654;14.238;2022-09-12T07:48:07;100687.78;;;16.02;100.00
19210;BME280;9738;51.654;14.238;2022-09-12T07:50:33;100684.66;;;16.13;100.00
19210;BME280;9738;51.654;14.238;2022-09-12T07:53:00;100684.16;;;16.33;100.00
19210;BME280;9738;51.654;14.238;2022-09-12T07:55:27;100685.59;;;16.43;100.00
19210;BME280;9738;51.654;14.238;2022-09-12T07:57:52;100688.69;;;16.55;100.00
19210;BME280;9738;51.654;14.238;2022-09-12T08:00:19;100689.84;;;16.75;100.00
19210;BME280;9738;51.654;14.238;2022-09-12T08:02:49;100689.72;;;16.98;100.00
19210;BME280;9738;51.654;14.238;2022-09-12T08:05:15;100685.06;;;17.22;100.00
19210;BME280;9738;51.654;14.238;2022-09-12T08:07:41;100689.94;;;17.48;100.00
19210;BME280;9738;51.654;14.238;2022-09-12T08:10:07;100689.44;;;17.59;100.00
19210;BME280;9738;51.654;14.238;2022-09-12T08:12:33;100692.63;;;17.63;100.00
19210;BME280;9738;51.654;14.238;2022-09-12T08:15:00;100688.13;;;17.70;100.00
19210;BME280;9738;51.654;14.238;2022-09-12T08:17:25;100688.22;;;17.76;100.00
19210;BME280;9738;51.654;14.238;2022-09-12T08:19:51;100690.59;;;17.86;100.00
19210;BME280;9738;51.654;14.238;2022-09-12T08:22:17;100690.00;;;17.91;100.00
19210;BME280;9738;51.654;14.238;2022-09-12T08:24:47;100690.47;;;17.94;100.00
19210;BME280;9738;51.654;14.238;2022-09-12T08:27:13;100689.25;;;17.97;100.00
19210;BME280;9738;51.654;14.238;2022-09-12T08:29:40;100688.47;;;18.03;100.00
19210;BME280;9738;51.654;14.238;2022-09-12T08:32:07;100693.88;;;18.03;100.00
19210;BME280;9738;51.654;14.238;2022-09-12T08:34:33;100695.75;;;18.02;100.00
19210;BME280;9738;51.654;14.238;2022-09-12T08:36:59;100694.06;;;18.01;100.00
19210;BME280;9738;51.654;14.238;2022-09-12T08:39:25;100700.06;;;17.97;100.00
19210;BME280;9738;51.654;14.238;2022-09-12T08:41:58;100692.97;;;17.96;100.00
19210;BME280;9738;51.654;14.238;2022-09-12T08:47:30;100695.78;;;17.88;100.00
19210;BME280;9738;51.654;14.238;2022-09-12T08:55:33;100699.09;;;17.83;100.00
19210;BME280;9738;51.654;14.238;2022-09-12T08:58:05;100698.25;;;17.82;100.00
19210;BME280;9738;51.654;14.238;2022-09-12T09:00:43;100704.44;;;17.76;100.00
19210;BME280;9738;51.654;14.238;2022-09-12T09:03:51;100699.66;;;17.78;100.00
19210;BME280;9738;51.654;14.238;2022-09-12T09:06:23;100698.81;;;17.78;100.00
19210;BME280;9738;51.654;14.238;2022-09-12T09:09:28;100704.59;;;17.75;100.00
19210;BME280;9738;51.654;14.238;2022-09-12T09:14:48;100700.06;;;17.75;100.00
19210;BME280;9738;51.654;14.238;2022-09-12T09:17:31;100700.50;;;17.79;100.00
19210;BME280;9738;51.654;14.238;2022-09-12T09:20:16;100701.13;;;17.81;100.00
19210;BME280;9738;51.654;14.238;2022-09-12T09:22:52;100701.59;;;17.85;100.00
19210;BME280;9738;51.654;14.238;2022-09-12T09:28:05;100693.34;;;17.93;100.00
19210;BME280;9738;51.654;14.238;2022-09-12T09:30:33;100695.47;;;17.97;100.00
19210;BME280;9738;51.654;14.238;2022-09-12T09:33:02;100700.47;;;18.00;100.00
19210;BME280;9738;51.654;14.238;2022-09-12T09:35:46;100699.41;;;17.95;100.00
19210;BME280;9738;51.654;14.238;2022-09-12T09:38:21;100705.47;;;17.97;100.00
19210;BME280;9738;51.654;14.238;2022-09-12T09:43:36;100690.41;;;18.09;100.00
19210;BME280;9738;51.654;14.238;2022-09-12T09:46:03;100693.53;;;18.13;100.00
19210;BME280;9738;51.654;14.238;2022-09-12T09:48:31;100695.66;;;18.17;100.00
19210;BME280;9738;51.654;14.238;2022-09-12T09:50:59;100694.88;;;18.23;100.00
19210;BME280;9738;51.654;14.238;2022-09-12T09:53:42;100688.53;;;18.37;100.00
19210;BME280;9738;51.654;14.238;2022-09-12T09:56:33;100697.63;;;18.51;100.00
19210;BME280;9738;51.654;14.238;2022-09-12T09:59:19;100696.63;;;18.59;100.00
19210;BME280;9738;51.654;14.238;2022-09-12T10:02:19;100701.41;;;18.63;100.00
19210;BME280;9738;51.654;14.238;2022-09-12T10:04:57;100691.09;;;18.67;100.00
19210;BME280;9738;51.654;14.238;2022-09-12T10:07:25;100696.44;;;18.60;100.00
19210;BME280;9738;51.654;14.238;2022-09-12T10:10:05;100691.59;;;18.56;100.00
19210;BME280;9738;51.654;14.238;2022-09-12T10:12:32;100685.97;;;18.57;100.00
19210;BME280;9738;51.654;14.238;2022-09-12T10:15:16;100695.50;;;18.47;100.00
19210;BME280;9738;51.654;14.238;2022-09-12T10:17:45;100692.53;;;18.42;100.00
19210;BME280;9738;51.654;14.238;2022-09-12T10:22:59;100694.56;;;18.33;100.00
19210;BME280;9738;51.654;14.238;2022-09-12T10:25:25;100695.56;;;18.32;100.00
19210;BME280;9738;51.654;14.238;2022-09-12T10:27:55;100688.94;;;18.34;100.00
19210;BME280;9738;51.654;14.238;2022-09-12T10:30:23;100682.28;;;18.58;100.00
19210;BME280;9738;51.654;14.238;2022-09-12T10:32:50;100687.88;;;18.85;100.00
19210;BME280;9738;51.654;14.238;2022-09-12T10:35:29;100683.81;;;19.02;100.00
19210;BME280;9738;51.654;14.238;2022-09-12T10:38:02;100676.78;;;19.21;100.00
19210;BME280;9738;51.654;14.238;2022-09-12T10:40:32;100685.00;;;19.34;100.00
19210;BME280;9738;51.654;14.238;2022-09-12T10:43:01;100674.19;;;19.41;100.00
19210;BME280;9738;51.654;14.238;2022-09-12T10:45:40;100674.22;;;19.48;100.00
19210;BME280;9738;51.654;14.238;2022-09-12T10:48:29;100679.19;;;19.51;100.00
19210;BME280;9738;51.654;14.238;2022-09-12T10:50:59;100683.97;;;19.42;100.00
19210;BME280;9738;51.654;14.238;2022-09-12T10:53:28;100682.31;;;19.41;100.00
19210;BME280;9738;51.654;14.238;2022-09-12T10:56:15;100683.13;;;19.35;100.00
19210;BME280;9738;51.654;14.238;2022-09-12T11:01:33;100673.50;;;19.32;100.00
19210;BME280;9738;51.654;14.238;2022-09-12T11:16:09;100672.91;;;18.96;100.00
19210;BME280;9738;51.654;14.238;2022-09-12T11:27:16;100664.75;;;19.30;100.00
19210;BME280;9738;51.654;14.238;2022-09-12T11:29:51;100659.16;;;19.38;100.00
19210;BME280;9738;51.654;14.238;2022-09-12T11:32:42;100657.94;;;19.48;100.00
19210;BME280;9738;51.654;14.238;2022-09-12T11:35:24;100659.88;;;19.60;100.00
19210;BME280;9738;51.654;14.238;2022-09-12T11:41:01;100646.78;;;19.84;100.00
19210;BME280;9738;51.654;14.238;2022-09-12T11:43:49;100651.56;;;19.75;74.87
19210;BME280;9738;51.654;14.238;2022-09-12T11:46:32;100645.72;;;19.71;75.83
19210;BME280;9738;51.654;14.238;2022-09-12T11:49:00;100651.78;;;19.80;73.84
19210;BME280;9738;51.654;14.238;2022-09-12T11:51:36;100643.66;;;19.93;77.48
19210;BME280;9738;51.654;14.238;2022-09-12T11:56:58;100650.31;;;19.97;69.99
19210;BME280;9738;51.654;14.238;2022-09-12T11:59:34;100655.56;;;19.92;68.75
19210;BME280;9738;51.654;14.238;2022-09-12T12:02:02;100645.34;;;19.94;71.35
19210;BME280;9738;51.654;14.238;2022-09-12T12:04:36;100651.59;;;19.88;69.64
19210;BME280;9738;51.654;14.238;2022-09-12T12:07:06;100652.41;;;19.82;70.97
19210;BME280;9738;51.654;14.238;2022-09-12T12:09:33;100649.09;;;19.80;68.68
19210;BME280;9738;51.654;14.238;2022-09-12T12:12:04;100651.56;;;19.75;69.50
19210;BME280;9738;51.654;14.238;2022-09-12T12:14:37;100648.84;;;19.75;71.37
19210;BME280;9738;51.654;14.238;2022-09-12T12:17:18;100651.16;;;19.85;72.08
19210;BME280;9738;51.654;14.238;2022-09-12T12:19:46;100642.19;;;19.84;69.98
19210;BME280;9738;51.654;14.238;2022-09-12T12:22:21;100643.22;;;19.83;72.45
19210;BME280;9738;51.654;14.238;2022-09-12T12:25:01;100651.56;;;19.75;70.36
19210;BME280;9738;51.654;14.238;2022-09-12T12:33:03;100641.56;;;19.95;68.36
19210;BME280;9738;51.654;14.238;2022-09-12T12:38:02;100630.72;;;20.15;70.99
19210;BME280;9738;51.654;14.238;2022-09-12T12:40:30;100631.16;;;20.25;69.98
19210;BME280;9738;51.654;14.238;2022-09-12T12:42:59;100631.75;;;20.34;67.70
19210;BME280;9738;51.654;14.238;2022-09-12T12:47:58;100631.38;;;20.50;69.53
19210;BME280;9738;51.654;14.238;2022-09-12T12:50:27;100629.25;;;20.52;67.74
19210;BME280;9738;51.654;14.238;2022-09-12T12:53:02;100621.97;;;20.46;64.13
19210;BME280;9738;51.654;14.238;2022-09-12T13:01:06;100607.16;;;20.49;68.88
19210;BME280;9738;51.654;14.238;2022-09-12T13:03:35;100601.06;;;20.60;64.22
19210;BME280;9738;51.654;14.238;2022-09-12T13:06:06;100601.47;;;20.64;63.70
19210;BME280;9738;51.654;14.238;2022-09-12T13:08:35;100604.38;;;20.69;63.69
19210;BME280;9738;51.654;14.238;2022-09-12T13:11:15;100608.31;;;20.73;60.15
19210;BME280;9738;51.654;14.238;2022-09-12T13:13:48;100606.06;;;20.70;62.63
19210;BME280;9738;51.654;14.238;2022-09-12T13:16:32;100600.38;;;20.78;62.31
19210;BME280;9738;51.654;14.238;2022-09-12T13:19:13;100601.88;;;20.67;59.25
19210;BME280;9738;51.654;14.238;2022-09-12T13:22:05;100585.59;;;20.61;59.50
19210;BME280;9738;51.654;14.238;2022-09-12T13:24:32;100582.72;;;20.56;60.10
19210;BME280;9738;51.654;14.238;2022-09-12T13:26:59;100584.19;;;20.51;61.45
19210;BME280;9738;51.654;14.238;2022-09-12T13:29:26;100575.81;;;20.53;61.36
19210;BME280;9738;51.654;14.238;2022-09-12T13:31:55;100580.78;;;20.69;63.54
19210;BME280;9738;51.654;14.238;2022-09-12T13:34:29;100573.84;;;20.80;61.36
19210;BME280;9738;51.654;14.238;2022-09-12T13:42:39;100576.00;;;21.10;61.64
19210;BME280;9738;51.654;14.238;2022-09-12T13:45:19;100569.13;;;21.14;57.43
19210;BME280;9738;51.654;14.238;2022-09-12T13:47:47;100574.06;;;21.23;61.70
19210;BME280;9738;51.654;14.238;2022-09-12T13:50:30;100572.78;;;21.33;57.50
19210;BME280;9738;51.654;14.238;2022-09-12T13:53:00;100576.72;;;21.37;59.59
19210;BME280;9738;51.654;14.238;2022-09-12T13:55:30;100576.31;;;21.40;58.91
19210;BME280;9738;51.654;14.238;2022-09-12T13:57:59;100570.63;;;21.41;56.99
19210;BME280;9738;51.654;14.238;2022-09-12T14:00:25;100572.34;;;21.36;55.56
19210;BME280;9738;51.654;14.238;2022-09-12T14:02:53;100561.53;;;21.29;58.46
19210;BME280;9738;51.654;14.238;2022-09-12T14:05:39;100565.31;;;21.21;58.04
19210;BME280;9738;51.654;14.238;2022-09-12T14:08:10;100569.06;;;21.20;56.87
19210;BME280;9738;51.654;14.238;2022-09-12T14:10:40;100566.75;;;21.24;59.79
19210;BME280;9738;51.654;14.238;2022-09-12T14:13:12;100564.22;;;21.29;58.24
19210;BME280;9738;51.654;14.238;2022-09-12T14:15:44;100564.84;;;21.31;58.96
19210;BME280;9738;51.654;14.238;2022-09-12T14:18:28;100563.38;;;21.35;59.08
19210;BME280;9738;51.654;14.238;2022-09-12T14:21:09;100555.63;;;21.39;57.86
19210;BME280;9738;51.654;14.238;2022-09-12T14:23:39;100549.97;;;21.40;60.95
19210;BME280;9738;51.654;14.238;2022-09-12T14:26:09;100547.19;;;21.47;59.53
19210;BME280;9738;51.654;14.238;2022-09-12T14:28:41;100546.25;;;21.59;57.77
19210;BME280;9738;51.654;14.238;2022-09-12T14:33:46;100550.63;;;21.61;56.36
19210;BME280;9738;51.654;14.238;2022-09-12T14:38:44;100550.97;;;21.46;57.61